TimePDT,TemperatureF,Dew PointF,Humidity,Sea Level PressureIn,VisibilityMPH,Wind Direction,Wind SpeedMPH,Gust SpeedMPH,PrecipitationIn,Events,Conditions,WindDirDegrees,DateUTC
12:17 AM,60.8,57.2,88,29.94,10.0,South,3.5,-,N/A,,Mostly Cloudy,190,2013-08-26 07:17:00
12:44 AM,59.0,57.2,94,29.94,10.0,South,3.5,-,N/A,,Overcast,170,2013-08-26 07:44:00
12:53 AM,59.0,57.0,93,29.93,10.0,South,3.5,-,N/A,,Overcast,170,2013-08-26 07:53:00
1:22 AM,57.2,55.4,94,29.95,10.0,Calm,Calm,-,N/A,,Scattered Clouds,0,2013-08-26 08:22:00
1:53 AM,57.0,55.0,93,29.92,10.0,Calm,Calm,-,N/A,,Clear,0,2013-08-26 08:53:00
2:26 AM,55.4,55.4,100,29.94,10.0,Calm,Calm,-,N/A,,Scattered Clouds,0,2013-08-26 09:26:00
2:34 AM,57.2,55.4,94,29.94,10.0,SE,3.5,-,N/A,,Mostly Cloudy,140,2013-08-26 09:34:00
2:42 AM,57.2,55.4,94,29.95,10.0,South,3.5,-,N/A,,Mostly Cloudy,170,2013-08-26 09:42:00
2:53 AM,57.0,55.9,96,29.93,10.0,Calm,Calm,-,N/A,,Overcast,0,2013-08-26 09:53:00
3:18 AM,57.2,55.4,94,29.96,10.0,SSE,3.5,-,N/A,,Overcast,160,2013-08-26 10:18:00
3:41 AM,59.0,55.4,88,29.96,10.0,Calm,Calm,-,N/A,,Overcast,0,2013-08-26 10:41:00
3:53 AM,59.0,55.9,90,29.95,10.0,Calm,Calm,-,N/A,,Overcast,0,2013-08-26 10:53:00
4:39 AM,59.0,57.2,94,29.96,5.0,Calm,Calm,-,N/A,,Overcast,0,2013-08-26 11:39:00
4:53 AM,59.0,57.0,93,29.95,6.0,Calm,Calm,-,N/A,,Overcast,0,2013-08-26 11:53:00
5:53 AM,59.0,57.9,96,29.96,5.0,Calm,Calm,-,N/A,,Overcast,0,2013-08-26 12:53:00
6:23 AM,59.0,57.2,94,29.98,9.0,Calm,Calm,-,N/A,,Overcast,0,2013-08-26 13:23:00
6:53 AM,59.0,57.9,96,29.97,1.5,Calm,Calm,-,N/A,,Overcast,0,2013-08-26 13:53:00
7:22 AM,59.0,57.2,94,29.99,1.5,Calm,Calm,-,0.01,,Overcast,0,2013-08-26 14:22:00
7:53 AM,60.1,57.9,93,29.98,1.5,Calm,Calm,-,0.01,,Overcast,0,2013-08-26 14:53:00
8:00 AM,60.8,57.2,88,30.00,10.0,Calm,Calm,-,N/A,,Overcast,0,2013-08-26 15:00:00
8:07 AM,60.8,57.2,88,30.00,1.5,Calm,Calm,-,N/A,,Overcast,0,2013-08-26 15:07:00
8:49 AM,60.8,57.2,88,30.01,10.0,Calm,Calm,-,N/A,,Overcast,0,2013-08-26 15:49:00
8:53 AM,62.1,57.9,86,29.99,2.5,WSW,3.5,-,N/A,,Overcast,240,2013-08-26 15:53:00
9:22 AM,64.4,57.2,77,30.00,5.0,Calm,Calm,-,N/A,,Overcast,0,2013-08-26 16:22:00
9:53 AM,64.9,57.0,75,29.99,10.0,Calm,Calm,-,N/A,,Mostly Cloudy,0,2013-08-26 16:53:00
10:00 AM,66.2,57.2,73,30.00,10.0,Calm,Calm,-,N/A,,Scattered Clouds,0,2013-08-26 17:00:00
10:53 AM,71.1,57.0,61,29.98,10.0,Calm,Calm,-,N/A,,Partly Cloudy,0,2013-08-26 17:53:00
11:53 AM,73.9,57.0,55,29.96,10.0,South,5.8,-,N/A,,Clear,170,2013-08-26 18:53:00
12:53 PM,78.1,55.9,46,29.93,10.0,South,4.6,-,N/A,,Clear,180,2013-08-26 19:53:00
1:53 PM,81.0,55.9,42,29.91,10.0,SW,8.1,-,N/A,,Clear,220,2013-08-26 20:53:00
2:53 PM,82.9,53.1,36,29.89,10.0,SW,8.1,-,N/A,,Clear,230,2013-08-26 21:53:00
3:53 PM,82.9,52.0,34,29.88,10.0,SSW,8.1,-,N/A,,Clear,200,2013-08-26 22:53:00
4:53 PM,82.9,53.1,36,29.86,10.0,SSW,8.1,-,N/A,,Clear,210,2013-08-26 23:53:00
5:53 PM,80.1,54.0,40,29.86,10.0,South,8.1,-,N/A,,Clear,190,2013-08-27 00:53:00
6:53 PM,75.0,55.0,50,29.86,10.0,SE,11.5,-,N/A,,Clear,140,2013-08-27 01:53:00
7:53 PM,68.0,54.0,61,29.86,10.0,SE,6.9,-,N/A,,Clear,140,2013-08-27 02:53:00
8:53 PM,64.0,53.1,67,29.88,10.0,SSE,4.6,-,N/A,,Clear,150,2013-08-27 03:53:00
9:53 PM,61.0,53.1,75,29.88,10.0,South,3.5,-,N/A,,Clear,170,2013-08-27 04:53:00
10:53 PM,60.1,53.1,78,29.88,10.0,Calm,Calm,-,N/A,,Clear,0,2013-08-27 05:53:00
11:53 PM,57.9,52.0,81,29.88,10.0,Calm,Calm,-,N/A,,Clear,0,2013-08-27 06:53:00